Time;durP1;ratioP1;P1;durP2;ratioP2;P2;SDS_P1;SDS_P2;PMS_P1;PMS_P2;Temp;Humidity;BMP_temperature;BMP_pressure;BME280_temperature;BME280_humidity;BME280_pressure;Samples;Min_cycle;Max_cycle;Signal;HPM_P1;HPM_P2
2021/09/14 00:01:49;;;;;;;22.00;16.80;;;13.90;99.90;;;;;;5040013;28;20421;-63
2021/09/14 00:04:18;;;;;;;25.87;17.67;;;13.90;99.90;;;;;;5038625;28;20182;-63
2021/09/14 00:06:48;;;;;;;24.77;18.30;;;13.80;99.90;;;;;;5033825;28;20200;-64
2021/09/14 00:09:16;;;;;;;23.00;17.93;;;13.80;99.90;;;;;;5038619;28;20214;-64
2021/09/14 00:11:45;;;;;;;23.13;17.13;;;13.70;99.90;;;;;;5037793;28;20188;-63
2021/09/14 00:14:13;;;;;;;22.63;18.30;;;13.70;99.90;;;;;;5034803;28;20181;-63
2021/09/14 00:16:43;;;;;;;24.80;18.90;;;13.70;99.90;;;;;;5034150;28;20214;-64
2021/09/14 00:19:11;;;;;;;22.70;17.60;;;13.60;99.90;;;;;;5036240;28;20358;-63
2021/09/14 00:21:40;;;;;;;25.30;16.93;;;13.60;99.90;;;;;;5039938;28;20192;-64
2021/09/14 00:24:08;;;;;;;25.83;18.50;;;13.60;99.90;;;;;;5039961;28;20341;-64
2021/09/14 00:26:37;;;;;;;26.43;18.50;;;13.60;99.90;;;;;;5034293;28;20360;-63
2021/09/14 00:29:05;;;;;;;27.10;18.30;;;13.60;99.90;;;;;;5037732;28;20189;-63
2021/09/14 00:31:33;;;;;;;26.77;19.40;;;13.60;99.90;;;;;;5039738;28;20210;-64
2021/09/14 00:34:04;;;;;;;24.80;19.37;;;13.60;99.90;;;;;;5037922;28;20193;-63
2021/09/14 00:36:32;;;;;;;25.80;18.67;;;13.60;99.90;;;;;;5037157;28;20204;-63
2021/09/14 00:42:04;;;;;;;25.27;18.53;;;13.50;99.90;;;;;;4995131;23;20306;-70
2021/09/14 00:44:32;;;;;;;27.63;19.17;;;13.50;99.90;;;;;;4873944;29;20202;-69
2021/09/14 00:47:00;;;;;;;25.00;18.13;;;13.40;99.90;;;;;;4873982;29;20205;-70
2021/09/14 00:49:30;;;;;;;26.80;19.77;;;13.40;99.90;;;;;;4873853;29;20438;-69
2021/09/14 00:51:58;;;;;;;26.20;19.47;;;13.40;99.90;;;;;;4872908;29;20193;-70
2021/09/14 00:54:27;;;;;;;29.33;19.70;;;13.40;99.90;;;;;;4870845;29;20206;-69
2021/09/14 00:56:58;;;;;;;31.90;20.07;;;13.40;99.90;;;;;;4872302;29;20195;-70
2021/09/14 00:59:26;;;;;;;34.30;22.00;;;13.40;99.90;;;;;;4872627;29;20305;-70
2021/09/14 01:01:55;;;;;;;32.20;21.20;;;13.50;99.90;;;;;;4870104;29;20558;-69
2021/09/14 01:04:25;;;;;;;36.63;22.33;;;13.60;99.90;;;;;;4871600;29;20201;-69
2021/09/14 01:06:54;;;;;;;35.73;22.83;;;13.60;99.90;;;;;;4876472;29;20396;-70
2021/09/14 01:09:23;;;;;;;32.67;22.10;;;13.70;99.90;;;;;;4869693;29;20187;-70
2021/09/14 01:11:53;;;;;;;33.03;21.70;;;13.70;99.90;;;;;;4872400;29;20286;-69
2021/09/14 01:14:24;;;;;;;31.27;21.53;;;13.70;99.90;;;;;;4872113;29;20741;-70
2021/09/14 01:16:53;;;;;;;32.07;21.73;;;13.70;99.90;;;;;;4871045;29;20198;-69
2021/09/14 01:19:22;;;;;;;31.93;21.60;;;13.70;99.90;;;;;;4855851;29;20655;-69
2021/09/14 01:21:50;;;;;;;27.30;20.87;;;13.70;99.90;;;;;;4858179;29;20305;-69
2021/09/14 01:24:20;;;;;;;29.77;20.37;;;13.60;99.90;;;;;;4872046;29;20810;-69
2021/09/14 01:26:48;;;;;;;28.73;21.50;;;13.60;99.90;;;;;;4873134;29;20234;-69
2021/09/14 01:31:59;;;;;;;26.97;19.73;;;13.60;99.90;;;;;;4879766;29;20206;-69
2021/09/14 01:34:27;;;;;;;30.53;20.93;;;13.50;99.90;;;;;;4874974;29;20557;-69
2021/09/14 01:36:55;;;;;;;28.00;20.43;;;13.50;99.90;;;;;;4875942;29;20229;-69
2021/09/14 01:39:25;;;;;;;31.13;20.67;;;13.40;99.90;;;;;;4875947;29;20306;-69
2021/09/14 01:41:53;;;;;;;31.97;20.77;;;13.40;99.90;;;;;;4878002;29;20621;-69
2021/09/14 01:44:21;;;;;;;28.13;20.23;;;13.40;99.90;;;;;;4875074;29;20199;-69
2021/09/14 01:46:51;;;;;;;28.47;20.40;;;13.40;99.90;;;;;;4863727;29;20294;-69
2021/09/14 01:49:20;;;;;;;28.77;19.80;;;13.40;99.90;;;;;;4878460;29;20239;-69
2021/09/14 01:51:50;;;;;;;29.20;20.40;;;13.40;99.90;;;;;;4881399;29;20738;-69
2021/09/14 01:54:18;;;;;;;27.43;20.23;;;13.30;99.90;;;;;;4875252;29;20621;-69
2021/09/14 01:56:48;;;;;;;26.77;20.40;;;13.30;99.90;;;;;;4877224;29;20521;-69
2021/09/14 01:59:16;;;;;;;31.90;20.33;;;13.40;99.90;;;;;;4876466;29;20313;-69
2021/09/14 02:01:49;;;;;;;33.80;23.40;;;13.40;99.90;;;;;;4866459;29;20226;-69
2021/09/14 02:04:21;;;;;;;32.83;22.80;;;13.40;99.90;;;;;;4878022;29;20211;-69
2021/09/14 02:07:00;;;;;;;33.33;23.03;;;13.40;99.90;;;;;;4877323;29;20208;-69
2021/09/14 02:23:57;;;;;;;31.80;22.23;;;13.30;99.90;;;;;;4876041;29;20213;-69
2021/09/14 02:40:36;;;;;;;34.33;22.97;;;13.20;99.90;;;;;;4869357;29;20227;-69
2021/09/14 02:59:39;;;;;;;40.40;26.60;;;13.20;99.90;;;;;;4856212;29;20741;-69
2021/09/14 03:02:08;;;;;;;45.63;26.40;;;13.20;99.90;;;;;;4876591;29;20210;-69
2021/09/14 03:04:37;;;;;;;42.17;26.63;;;13.20;99.90;;;;;;4857029;29;20241;-69
2021/09/14 03:07:06;;;;;;;39.30;25.23;;;13.20;99.90;;;;;;4874344;29;20199;-69
2021/09/14 03:09:34;;;;;;;37.93;25.70;;;13.20;99.90;;;;;;4874904;29;20294;-69
2021/09/14 03:12:11;;;;;;;36.13;23.77;;;13.20;99.90;;;;;;4838193;29;20195;-69
2021/09/14 03:15:08;;;;;;;38.43;23.90;;;13.20;99.90;;;;;;4860542;29;20198;-69
2021/09/14 03:17:39;;;;;;;34.30;24.33;;;13.10;99.90;;;;;;4877000;29;20202;-69
2021/09/14 03:20:11;;;;;;;37.07;23.93;;;13.10;99.90;;;;;;4852300;29;20218;-69
2021/09/14 03:22:59;;;;;;;32.17;23.53;;;13.00;99.90;;;;;;4845425;29;20557;-69
2021/09/14 03:26:09;;;;;;;36.30;24.03;;;13.00;99.90;;;;;;4876608;29;20207;-69
2021/09/14 03:28:37;;;;;;;35.13;24.40;;;13.00;99.90;;;;;;4858969;29;20203;-69
2021/09/14 03:31:07;;;;;;;41.27;25.63;;;13.00;99.90;;;;;;4874753;29;20195;-69
2021/09/14 03:33:36;;;;;;;39.97;25.57;;;13.00;99.90;;;;;;4875284;29;20195;-69
2021/09/14 03:36:05;;;;;;;38.70;25.23;;;13.00;99.90;;;;;;4869256;29;20199;-69
2021/09/14 03:38:33;;;;;;;39.03;25.00;;;13.10;99.90;;;;;;4870620;29;20202;-69
2021/09/14 03:41:01;;;;;;;39.37;25.87;;;13.00;99.90;;;;;;4859716;29;20335;-69
2021/09/14 03:43:30;;;;;;;39.87;24.90;;;13.00;99.90;;;;;;4853793;29;20298;-69
2021/09/14 03:45:58;;;;;;;39.77;26.33;;;13.00;99.90;;;;;;4851447;29;20607;-69
2021/09/14 03:48:27;;;;;;;37.90;25.60;;;13.00;99.90;;;;;;4857039;29;20667;-69
2021/09/14 03:50:57;;;;;;;43.77;26.53;;;13.00;99.90;;;;;;4853868;29;20200;-69
2021/09/14 03:53:25;;;;;;;43.87;28.20;;;13.00;99.90;;;;;;4854866;29;20602;-69
2021/09/14 03:55:54;;;;;;;48.80;29.10;;;13.00;99.90;;;;;;4852623;29;20735;-69
2021/09/14 03:58:22;;;;;;;49.63;28.90;;;13.10;99.90;;;;;;4855476;29;20202;-69
2021/09/14 04:00:53;;;;;;;40.63;26.97;;;13.10;99.90;;;;;;4853811;29;20247;-69
2021/09/14 04:03:26;;;;;;;40.30;25.80;;;13.10;99.90;;;;;;4853328;29;20203;-69
2021/09/14 04:06:09;;;;;;;39.27;26.03;;;13.10;99.90;;;;;;4856119;29;20204;-69
2021/09/14 04:08:51;;;;;;;39.77;26.50;;;13.00;99.90;;;;;;4858489;29;20215;-68
2021/09/14 04:11:21;;;;;;;47.77;29.40;;;13.00;99.90;;;;;;4853861;29;20200;-68
2021/09/14 04:13:50;;;;;;;54.27;30.77;;;13.00;99.90;;;;;;4854765;29;20203;-68
2021/09/14 04:16:18;;;;;;;52.17;30.67;;;13.10;99.90;;;;;;4855664;29;20235;-68
2021/09/14 04:18:47;;;;;;;49.07;30.43;;;13.10;99.90;;;;;;4856524;29;20906;-69
2021/09/14 04:21:17;;;;;;;52.03;30.13;;;13.10;99.90;;;;;;4853470;29;20227;-69
2021/09/14 04:23:45;;;;;;;46.93;30.03;;;13.10;99.90;;;;;;4852110;29;20204;-68
2021/09/14 04:26:14;;;;;;;49.03;29.10;;;13.10;99.90;;;;;;4856515;29;20207;-68
2021/09/14 04:28:43;;;;;;;51.33;30.00;;;13.00;99.90;;;;;;4853631;29;20209;-68
2021/09/14 04:31:12;;;;;;;48.33;31.67;;;13.00;99.90;;;;;;4865595;29;20188;-68
2021/09/14 04:33:41;;;;;;;51.50;29.13;;;13.00;99.90;;;;;;4856014;29;20195;-68
2021/09/14 04:36:09;;;;;;;50.67;30.10;;;13.00;99.90;;;;;;4852486;29;20789;-68
2021/09/14 04:38:41;;;;;;;51.37;29.10;;;13.00;99.90;;;;;;4856661;29;20563;-68
2021/09/14 04:41:10;;;;;;;51.93;30.43;;;13.00;99.90;;;;;;4863180;29;20239;-68
2021/09/14 04:43:38;;;;;;;47.00;29.80;;;13.00;99.90;;;;;;4874609;29;20285;-68
2021/09/14 04:46:07;;;;;;;53.67;32.27;;;12.90;99.90;;;;;;4858479;29;20195;-68
2021/09/14 04:48:37;;;;;;;52.73;32.20;;;12.90;99.90;;;;;;4858706;29;20607;-68
2021/09/14 04:51:05;;;;;;;57.80;32.43;;;13.00;99.90;;;;;;4857437;29;20669;-69
2021/09/14 04:53:33;;;;;;;57.53;32.87;;;13.00;99.90;;;;;;4854803;29;20199;-68
2021/09/14 04:56:04;;;;;;;57.27;32.07;;;13.00;99.90;;;;;;4840853;29;20290;-68
2021/09/14 04:58:36;;;;;;;50.10;31.20;;;13.00;99.90;;;;;;4859292;29;20210;-69
2021/09/14 05:01:04;;;;;;;51.87;31.57;;;12.90;99.90;;;;;;4873804;29;20241;-68
2021/09/14 05:03:33;;;;;;;49.97;30.30;;;12.90;99.90;;;;;;4873491;29;20718;-68
2021/09/14 05:06:01;;;;;;;56.10;32.13;;;12.90;99.90;;;;;;4870265;29;20251;-69
2021/09/14 05:08:30;;;;;;;51.80;31.90;;;12.90;99.90;;;;;;4874654;29;20243;-70
2021/09/14 05:10:58;;;;;;;47.23;29.63;;;12.80;99.90;;;;;;4876025;29;20211;-68
2021/09/14 05:13:29;;;;;;;57.13;31.57;;;12.80;99.90;;;;;;4835759;29;20206;-70
2021/09/14 05:15:59;;;;;;;56.37;31.83;;;12.80;99.90;;;;;;4844610;29;20222;-69
2021/09/14 05:18:43;;;;;;;51.87;31.80;;;12.80;99.90;;;;;;4844247;29;20202;-70
2021/09/14 05:21:12;;;;;;;57.37;32.77;;;12.80;99.90;;;;;;4873343;29;20317;-68
2021/09/14 05:23:41;;;;;;;51.70;31.03;;;12.80;99.90;;;;;;4841831;29;20222;-69
2021/09/14 05:26:10;;;;;;;52.87;31.33;;;12.80;99.90;;;;;;4870219;29;20249;-69
2021/09/14 05:28:43;;;;;;;48.73;30.37;;;12.70;99.90;;;;;;4870229;29;20229;-70
2021/09/14 05:31:11;;;;;;;44.63;27.93;;;12.70;99.90;;;;;;4854060;29;20626;-69
2021/09/14 05:33:40;;;;;;;47.23;29.40;;;12.70;99.90;;;;;;4863757;29;20195;-69
2021/09/14 05:36:09;;;;;;;64.70;32.70;;;12.70;99.90;;;;;;4854971;29;20199;-69
2021/09/14 05:38:38;;;;;;;54.67;30.93;;;12.70;99.90;;;;;;4856201;29;20207;-70
2021/09/14 05:41:06;;;;;;;56.80;33.73;;;12.70;99.90;;;;;;4842373;29;20275;-68
2021/09/14 05:43:42;;;;;;;58.80;33.27;;;12.70;99.90;;;;;;4856620;29;20197;-69
2021/09/14 05:46:11;;;;;;;52.10;31.47;;;12.70;99.90;;;;;;4875779;29;20251;-69
2021/09/14 05:48:41;;;;;;;54.97;32.17;;;12.70;99.90;;;;;;4873821;29;20282;-69
2021/09/14 05:51:09;;;;;;;59.77;34.73;;;12.80;99.90;;;;;;4872469;29;20675;-69
2021/09/14 05:53:38;;;;;;;60.57;33.87;;;12.80;99.90;;;;;;4869732;29;20282;-68
2021/09/14 05:56:06;;;;;;;55.97;32.90;;;12.90;99.90;;;;;;4853289;29;20199;-68
2021/09/14 05:58:35;;;;;;;61.63;34.90;;;12.90;99.90;;;;;;4855979;29;20198;-68
2021/09/14 06:01:07;;;;;;;59.33;34.50;;;13.00;99.90;;;;;;4863747;29;20402;-69
2021/09/14 06:03:38;;;;;;;56.80;33.60;;;13.00;99.90;;;;;;4855676;29;20226;-69
2021/09/14 06:06:10;;;;;;;67.10;35.93;;;13.10;99.90;;;;;;4844500;29;20191;-70
2021/09/14 06:08:38;;;;;;;65.30;35.67;;;13.10;99.90;;;;;;4872642;29;20213;-70
2021/09/14 06:11:06;;;;;;;65.97;34.50;;;13.20;99.90;;;;;;4870309;29;20228;-70
2021/09/14 06:13:35;;;;;;;64.00;34.57;;;13.20;99.90;;;;;;4858872;29;20226;-67
2021/09/14 06:16:05;;;;;;;59.93;34.70;;;13.30;99.90;;;;;;4854332;29;20643;-67
2021/09/14 06:18:34;;;;;;;60.50;33.13;;;13.30;99.90;;;;;;4870958;29;20688;-67
2021/09/14 06:21:03;;;;;;;55.70;32.90;;;13.40;99.90;;;;;;4876436;29;20471;-67
2021/09/14 06:23:33;;;;;;;60.00;33.30;;;13.40;99.90;;;;;;4847705;29;20226;-67
2021/09/14 06:26:01;;;;;;;60.47;34.90;;;13.50;99.90;;;;;;4867229;29;20396;-68
2021/09/14 06:28:33;;;;;;;55.23;33.33;;;13.50;99.90;;;;;;4871394;29;20206;-67
2021/09/14 06:31:05;;;;;;;65.17;35.37;;;13.60;99.90;;;;;;4873432;29;20214;-67
2021/09/14 06:33:34;;;;;;;62.10;34.33;;;13.60;99.90;;;;;;4849540;29;20220;-67
2021/09/14 06:36:04;;;;;;;59.57;34.80;;;13.70;99.90;;;;;;4860294;29;20206;-67
2021/09/14 06:38:37;;;;;;;55.67;33.33;;;13.70;99.90;;;;;;4874266;29;20566;-68
2021/09/14 06:41:06;;;;;;;57.37;33.87;;;13.90;99.90;;;;;;4859752;29;20243;-67
2021/09/14 06:43:35;;;;;;;56.90;31.30;;;14.00;99.90;;;;;;4862007;29;20206;-67
2021/09/14 06:46:04;;;;;;;54.37;32.60;;;14.10;99.90;;;;;;4882408;29;20255;-68
2021/09/14 06:48:33;;;;;;;54.97;32.33;;;14.20;99.90;;;;;;4840745;29;20315;-68
2021/09/14 06:51:01;;;;;;;53.23;30.57;;;14.40;99.90;;;;;;4857926;29;20202;-67
2021/09/14 06:53:31;;;;;;;49.97;31.57;;;14.50;99.90;;;;;;4856827;29;20566;-68
2021/09/14 06:56:00;;;;;;;45.10;30.33;;;14.60;99.90;;;;;;4860276;29;20238;-68
2021/09/14 06:58:30;;;;;;;49.87;30.87;;;14.60;99.90;;;;;;4878223;29;20402;-70
2021/09/14 07:00:58;;;;;;;47.30;30.07;;;14.70;99.90;;;;;;4876620;29;20247;-68
2021/09/14 07:03:29;;;;;;;46.47;29.13;;;14.70;99.90;;;;;;4883918;29;20186;-68
2021/09/14 07:05:58;;;;;;;46.23;30.43;;;14.70;99.90;;;;;;4873530;29;20569;-68
2021/09/14 07:08:27;;;;;;;47.20;29.00;;;14.80;99.90;;;;;;4880294;29;20210;-68
2021/09/14 07:10:56;;;;;;;42.53;28.87;;;14.90;99.90;;;;;;4860176;29;20194;-68
2021/09/14 07:13:24;;;;;;;38.83;27.10;;;15.00;99.90;;;;;;4869895;29;20195;-68
2021/09/14 07:15:53;;;;;;;42.40;27.60;;;15.10;99.90;;;;;;4840867;29;20203;-68
2021/09/14 07:18:22;;;;;;;43.03;27.77;;;15.20;99.90;;;;;;4837577;29;20266;-68
2021/09/14 07:20:52;;;;;;;39.13;26.20;;;15.30;99.90;;;;;;4878546;29;20206;-68
2021/09/14 07:23:21;;;;;;;43.10;28.23;;;15.40;99.90;;;;;;4873217;29;20317;-68
2021/09/14 07:25:50;;;;;;;41.33;27.23;;;15.50;99.90;;;;;;4854609;29;20238;-68
2021/09/14 07:28:18;;;;;;;38.27;26.13;;;15.50;99.90;;;;;;4874623;29;20287;-68
2021/09/14 07:30:46;;;;;;;43.43;28.03;;;15.60;99.90;;;;;;4857906;29;20263;-68
2021/09/14 07:33:16;;;;;;;40.33;27.77;;;15.70;99.90;;;;;;4869329;29;20267;-68
2021/09/14 07:35:44;;;;;;;37.20;25.43;;;15.80;99.90;;;;;;4853905;29;20311;-68
2021/09/14 07:38:14;;;;;;;36.07;24.00;;;15.90;99.90;;;;;;4855187;29;20291;-68
2021/09/14 07:40:44;;;;;;;35.50;25.40;;;16.10;99.90;;;;;;4853033;29;20573;-68
2021/09/14 07:43:52;;;;;;;37.90;25.43;;;16.20;99.90;;;;;;4870141;29;20214;-68
2021/09/14 07:46:21;;;;;;;38.83;24.57;;;16.30;99.90;;;;;;4870518;29;20210;-68
2021/09/14 07:48:49;;;;;;;36.63;25.23;;;16.30;99.90;;;;;;4861749;29;20598;-68
2021/09/14 07:51:18;;;;;;;37.53;25.07;;;16.40;99.90;;;;;;4877749;29;20199;-68
2021/09/14 07:53:49;;;;;;;37.53;24.93;;;16.40;99.90;;;;;;4875348;29;20226;-68
2021/09/14 07:56:17;;;;;;;34.77;22.97;;;16.40;99.90;;;;;;4872270;29;20628;-68
2021/09/14 07:58:46;;;;;;;36.57;24.37;;;16.50;99.90;;;;;;4874446;29;20615;-68
2021/09/14 08:01:14;;;;;;;37.07;23.93;;;16.60;99.90;;;;;;4877694;29;20226;-68
2021/09/14 08:03:45;;;;;;;36.70;24.37;;;16.60;99.90;;;;;;4855842;29;20593;-68
2021/09/14 08:06:13;;;;;;;33.53;23.00;;;16.60;99.90;;;;;;4872677;29;20191;-68
2021/09/14 08:08:42;;;;;;;30.63;22.43;;;16.70;99.90;;;;;;4854928;29;20653;-68
2021/09/14 08:11:12;;;;;;;34.43;23.30;;;16.80;99.90;;;;;;4869749;29;20294;-68
2021/09/14 08:13:42;;;;;;;34.40;24.50;;;16.80;99.90;;;;;;4875679;29;20229;-68
2021/09/14 08:16:10;;;;;;;31.53;22.90;;;16.90;99.90;;;;;;4875203;29;20578;-68
2021/09/14 08:18:38;;;;;;;34.97;23.80;;;17.00;99.90;;;;;;4861422;29;20294;-68
2021/09/14 08:21:07;;;;;;;33.17;22.37;;;17.10;99.90;;;;;;4844634;29;20200;-68
2021/09/14 08:23:35;;;;;;;29.63;21.40;;;17.20;99.90;;;;;;4870834;29;20255;-68
2021/09/14 08:26:04;;;;;;;36.00;22.97;;;17.30;99.90;;;;;;4876848;29;20209;-68
2021/09/14 08:28:35;;;;;;;30.37;21.00;;;17.50;99.90;;;;;;4874254;29;20333;-68
2021/09/14 08:31:03;;;;;;;30.63;20.13;;;17.70;99.90;;;;;;4874292;29;20636;-68
2021/09/14 08:33:32;;;;;;;31.23;21.00;;;17.90;99.90;;;;;;4869211;29;20282;-68
2021/09/14 08:36:00;;;;;;;27.00;18.83;;;18.10;99.90;;;;;;4874084;29;20195;-68
2021/09/14 08:38:28;;;;;;;26.20;18.77;;;18.20;99.90;;;;;;4870799;29;20209;-68
2021/09/14 08:40:57;;;;;;;27.33;18.87;;;18.60;99.90;;;;;;4851794;29;20232;-68
2021/09/14 08:43:26;;;;;;;29.87;19.13;;;18.80;99.90;;;;;;4854520;29;20806;-68
2021/09/14 08:45:56;;;;;;;23.50;16.93;;;19.10;99.90;;;;;;4857866;29;20199;-68
2021/09/14 08:48:27;;;;;;;26.43;19.17;;;19.20;99.90;;;;;;4855612;29;20731;-68
2021/09/14 08:50:56;;;;;;;27.13;19.23;;;19.40;99.90;;;;;;4853752;29;20276;-68
2021/09/14 08:53:24;;;;;;;27.80;18.13;;;19.30;99.90;;;;;;4854099;29;20282;-69
2021/09/14 08:55:53;;;;;;;24.50;17.77;;;19.40;99.90;;;;;;4855283;29;20632;-68
2021/09/14 08:58:21;;;;;;;25.27;18.37;;;19.50;99.90;;;;;;4852974;29;20234;-68
2021/09/14 09:00:51;;;;;;;22.57;16.43;;;19.50;99.90;;;;;;4853109;29;20223;-68
2021/09/14 09:03:27;;;;;;;20.33;16.87;;;19.50;99.90;;;;;;4854433;29;20208;-68
2021/09/14 09:05:57;;;;;;;31.90;17.33;;;19.50;99.90;;;;;;4854817;29;20227;-68
2021/09/14 09:08:26;;;;;;;21.03;16.73;;;19.60;99.90;;;;;;4855808;29;20291;-68
2021/09/14 09:11:05;;;;;;;23.80;16.73;;;19.60;99.90;;;;;;4853619;29;20200;-68
2021/09/14 09:13:35;;;;;;;22.50;16.67;;;19.70;99.90;;;;;;4861855;29;20196;-68
2021/09/14 09:16:07;;;;;;;24.27;16.77;;;19.80;99.90;;;;;;4856038;29;20227;-68
2021/09/14 09:18:49;;;;;;;22.83;16.47;;;19.90;99.90;;;;;;4855669;29;20235;-67
2021/09/14 09:21:17;;;;;;;23.43;15.77;;;19.90;99.90;;;;;;4856595;29;20290;-68
2021/09/14 09:23:56;;;;;;;21.47;15.10;;;19.90;99.90;;;;;;4858603;29;20216;-68
2021/09/14 09:26:34;;;;;;;17.57;14.10;;;19.90;99.90;;;;;;4852131;29;20260;-68
2021/09/14 09:29:05;;;;;;;20.07;15.97;;;20.10;99.90;;;;;;4854219;29;20674;-67
2021/09/14 09:31:34;;;;;;;25.53;15.73;;;20.10;99.90;;;;;;4852349;29;20276;-68
2021/09/14 09:34:05;;;;;;;20.57;15.03;;;20.20;99.90;;;;;;4850712;29;20247;-68
2021/09/14 09:36:37;;;;;;;18.13;14.20;;;20.30;99.90;;;;;;4856423;29;21283;-68
2021/09/14 09:39:09;;;;;;;21.07;13.77;;;20.30;99.90;;;;;;4852461;29;20663;-67
2021/09/14 09:41:39;;;;;;;24.53;13.60;;;20.30;99.90;;;;;;4851098;29;20325;-68
2021/09/14 09:44:09;;;;;;;20.90;15.00;;;20.30;99.90;;;;;;4855529;29;20255;-68
2021/09/14 09:46:38;;;;;;;16.87;13.63;;;20.40;99.90;;;;;;4852828;29;20270;-68
2021/09/14 09:49:09;;;;;;;16.43;12.80;;;20.30;99.90;;;;;;4853545;29;20195;-67
2021/09/14 09:51:38;;;;;;;17.67;13.13;;;20.30;99.90;;;;;;4857427;29;20625;-68
2021/09/14 09:54:07;;;;;;;18.50;13.50;;;20.30;99.90;;;;;;4856119;29;20247;-68
2021/09/14 09:56:35;;;;;;;17.57;13.30;;;20.30;99.90;;;;;;4858670;29;20234;-67
2021/09/14 09:59:04;;;;;;;17.57;13.43;;;20.20;99.90;;;;;;4855082;29;20227;-67
2021/09/14 10:01:35;;;;;;;17.80;12.87;;;20.20;99.90;;;;;;4855431;29;20547;-67
2021/09/14 10:04:10;;;;;;;17.47;13.40;;;20.30;99.90;;;;;;4857418;29;20215;-68
2021/09/14 10:06:41;;;;;;;14.07;12.50;;;20.40;99.90;;;;;;4856179;29;20659;-67
2021/09/14 10:09:10;;;;;;;18.10;12.73;;;20.40;99.90;;;;;;4859379;29;20199;-68
2021/09/14 10:11:38;;;;;;;14.30;10.60;;;20.40;99.90;;;;;;4852503;29;20290;-67
2021/09/14 10:14:11;;;;;;;12.23;10.50;;;20.50;99.90;;;;;;4856526;29;20667;-67
2021/09/14 10:16:45;;;;;;;15.87;10.67;;;20.70;99.90;;;;;;4858301;29;20420;-67
2021/09/14 10:19:17;;;;;;;12.13;10.63;;;20.80;99.90;;;;;;4862923;29;20198;-68
2021/09/14 10:21:47;;;;;;;12.40;10.43;;;20.80;99.90;;;;;;4853513;29;20231;-68
2021/09/14 10:24:20;;;;;;;12.77;10.57;;;20.80;99.90;;;;;;4857736;29;20694;-68
2021/09/14 10:26:50;;;;;;;11.50;9.80;;;20.80;99.90;;;;;;4855309;29;20210;-68
2021/09/14 10:29:20;;;;;;;12.37;10.00;;;20.80;99.90;;;;;;4859412;29;20216;-67
2021/09/14 10:31:48;;;;;;;13.57;10.43;;;20.90;99.90;;;;;;4857027;29;20192;-67
2021/09/14 10:34:18;;;;;;;11.00;9.80;;;20.90;99.90;;;;;;4856568;29;20484;-67
2021/09/14 10:37:00;;;;;;;11.40;10.20;;;20.90;99.90;;;;;;4859055;29;20430;-67
2021/09/14 10:39:28;;;;;;;10.67;9.60;;;21.00;99.90;;;;;;4857581;29;20720;-67
2021/09/14 10:41:57;;;;;;;13.73;10.43;;;21.00;99.90;;;;;;4857947;29;20418;-67
2021/09/14 10:44:28;;;;;;;13.23;10.03;;;20.90;99.90;;;;;;4856082;29;20508;-68
2021/09/14 10:47:08;;;;;;;11.40;10.20;;;20.90;99.90;;;;;;4857866;29;20198;-67
2021/09/14 10:49:46;;;;;;;17.03;10.20;;;21.00;99.90;;;;;;4855993;29;20199;-67
2021/09/14 10:52:16;;;;;;;10.40;9.27;;;21.10;99.90;;;;;;4854088;29;20235;-68
2021/09/14 10:54:48;;;;;;;21.13;10.20;;;21.10;99.90;;;;;;4853619;29;20507;-67
2021/09/14 10:57:16;;;;;;;12.77;10.33;;;21.10;99.90;;;;;;4851468;29;20239;-70
2021/09/14 10:59:49;;;;;;;14.77;9.90;;;21.20;99.90;;;;;;4854287;29;20579;-67
2021/09/14 11:02:18;;;;;;;12.10;9.30;;;21.30;99.90;;;;;;4850811;29;20644;-68
2021/09/14 11:04:48;;;;;;;12.10;9.30;;;21.40;99.90;;;;;;4857237;29;20642;-68
2021/09/14 11:07:20;;;;;;;12.00;9.67;;;21.40;99.90;;;;;;4859680;29;20260;-67
2021/09/14 11:09:53;;;;;;;12.30;8.43;;;21.50;99.90;;;;;;4856299;29;20207;-68
2021/09/14 11:12:23;;;;;;;13.33;9.27;;;21.50;99.90;;;;;;4867769;29;20204;-68
2021/09/14 11:14:53;;;;;;;13.87;9.50;;;21.50;99.90;;;;;;4859273;29;20199;-67
2021/09/14 11:17:26;;;;;;;10.70;9.07;;;21.50;99.90;;;;;;4854849;29;20230;-68
2021/09/14 11:20:07;;;;;;;10.90;8.40;;;21.50;99.90;;;;;;4854369;29;20199;-68
2021/09/14 11:22:38;;;;;;;10.00;8.47;;;21.40;99.90;;;;;;4856128;29;20726;-67
2021/09/14 11:25:12;;;;;;;11.90;8.80;;;21.40;99.90;;;;;;4857019;29;20247;-68
2021/09/14 11:27:40;;;;;;;12.37;8.20;;;21.50;99.90;;;;;;4855387;29;20224;-68
2021/09/14 11:30:14;;;;;;;11.33;9.17;;;21.40;99.90;;;;;;4854256;29;20204;-67
2021/09/14 11:32:44;;;;;;;9.87;8.80;;;21.40;99.90;;;;;;4859755;29;20220;-68
2021/09/14 11:35:14;;;;;;;14.07;8.83;;;21.30;99.90;;;;;;4855263;29;20263;-68
2021/09/14 11:37:43;;;;;;;9.90;8.13;;;21.40;99.90;;;;;;4860056;29;20203;-68
2021/09/14 11:40:19;;;;;;;11.50;8.90;;;21.50;99.90;;;;;;4857074;29;20195;-68
2021/09/14 11:42:55;;;;;;;9.70;7.60;;;21.50;99.90;;;;;;4870376;29;20285;-69
2021/09/14 11:45:25;;;;;;;10.27;8.70;;;21.50;99.90;;;;;;4872712;29;20241;-68
2021/09/14 11:47:54;;;;;;;12.83;8.53;;;21.50;99.90;;;;;;4878669;29;20420;-67
2021/09/14 11:50:38;;;;;;;8.53;7.63;;;21.50;99.90;;;;;;4873400;29;20198;-67
2021/09/14 11:53:08;;;;;;;14.53;7.57;;;21.50;99.90;;;;;;4875950;29;20603;-67
2021/09/14 11:55:41;;;;;;;9.83;7.53;;;21.50;99.90;;;;;;4874386;29;20294;-67
2021/09/14 11:58:10;;;;;;;10.50;7.63;;;21.60;99.90;;;;;;4877340;29;20255;-67
2021/09/14 12:00:40;;;;;;;13.07;7.93;;;21.70;99.90;;;;;;4858243;29;20259;-67
2021/09/14 12:03:08;;;;;;;8.13;6.57;;;21.70;99.90;;;;;;4870790;29;20198;-67
2021/09/14 12:05:39;;;;;;;9.10;7.30;;;21.80;99.90;;;;;;4857281;29;20594;-67
2021/09/14 12:08:11;;;;;;;9.23;6.87;;;22.00;99.90;;;;;;4872290;29;20616;-67
2021/09/14 12:10:44;;;;;;;9.87;5.90;;;22.10;99.90;;;;;;4872299;29;20287;-67
2021/09/14 12:13:18;;;;;;;8.07;6.40;;;22.30;99.90;;;;;;4876441;29;20208;-67
2021/09/14 12:15:48;;;;;;;6.67;6.00;;;22.50;99.90;;;;;;4876445;29;20195;-67
2021/09/14 12:18:17;;;;;;;6.40;5.80;;;22.60;99.90;;;;;;4870633;29;20198;-67
2021/09/14 12:20:47;;;;;;;8.33;5.70;;;22.80;99.90;;;;;;4855457;29;20342;-67
2021/09/14 12:23:17;;;;;;;6.27;5.50;;;22.90;99.90;;;;;;4874004;29;20254;-68
2021/09/14 12:25:45;;;;;;;9.17;5.67;;;22.90;99.90;;;;;;4875284;29;20311;-69
2021/09/14 12:28:14;;;;;;;6.27;5.67;;;22.90;99.90;;;;;;4876875;29;20742;-67
2021/09/14 12:30:42;;;;;;;9.70;5.93;;;23.00;99.90;;;;;;4875478;29;20290;-68
2021/09/14 12:33:10;;;;;;;7.00;5.73;;;23.20;99.90;;;;;;4875036;29;20671;-67
2021/09/14 12:35:40;;;;;;;9.67;6.00;;;23.20;99.90;;;;;;4873594;29;20198;-69
2021/09/14 12:38:10;;;;;;;8.80;5.63;;;23.40;99.90;;;;;;4871518;29;20510;-68
2021/09/14 12:40:39;;;;;;;7.40;6.70;;;23.30;99.90;;;;;;4875572;29;20231;-69
2021/09/14 12:43:07;;;;;;;6.13;5.63;;;23.10;99.90;;;;;;4874269;29;20232;-68
2021/09/14 12:45:36;;;;;;;7.13;5.30;;;23.30;99.90;;;;;;4874109;29;20264;-69
2021/09/14 12:48:04;;;;;;;6.97;5.40;;;23.50;99.90;;;;;;4873309;29;20211;-69
2021/09/14 12:50:33;;;;;;;5.60;5.10;;;23.60;99.90;;;;;;4871606;29;20237;-69
2021/09/14 12:53:04;;;;;;;8.73;4.73;;;23.60;99.90;;;;;;4873834;29;20590;-69
2021/09/14 12:55:38;;;;;;;5.20;4.50;;;23.50;99.90;;;;;;4872297;29;20541;-69
2021/09/14 12:58:07;;;;;;;7.77;4.77;;;23.30;99.90;;;;;;4872012;29;20201;-69
2021/09/14 13:00:37;;;;;;;5.47;4.97;;;23.20;99.90;;;;;;4875984;29;20247;-68
2021/09/14 13:03:06;;;;;;;7.00;4.73;;;23.00;99.90;;;;;;4872088;29;20195;-69
2021/09/14 13:05:35;;;;;;;4.97;4.67;;;22.90;99.90;;;;;;4872901;29;20216;-69
2021/09/14 13:08:03;;;;;;;5.40;4.93;;;22.80;99.90;;;;;;4873739;29;20198;-68
2021/09/14 13:10:33;;;;;;;5.40;4.97;;;22.60;99.90;;;;;;4873379;29;20232;-69
2021/09/14 13:18:36;;;;;;;5.73;5.23;;;22.80;99.90;;;;;;4869708;29;20650;-69
2021/09/14 13:21:05;;;;;;;6.73;4.83;;;23.10;99.90;;;;;;4873330;29;20204;-68
2021/09/14 13:23:34;;;;;;;7.23;6.03;;;23.20;99.90;;;;;;4873166;29;20200;-68
2021/09/14 13:26:03;;;;;;;6.80;6.10;;;23.30;99.90;;;;;;4871244;29;20236;-69
2021/09/14 13:28:33;;;;;;;6.93;5.40;;;23.30;99.90;;;;;;4872879;29;20820;-69
2021/09/14 13:31:01;;;;;;;6.10;5.47;;;23.30;99.90;;;;;;4877421;29;20214;-69
2021/09/14 13:33:30;;;;;;;7.20;6.53;;;23.50;99.90;;;;;;4872794;29;20242;-69
2021/09/14 13:35:59;;;;;;;7.60;6.33;;;23.60;99.90;;;;;;4873492;29;20237;-69
2021/09/14 13:38:29;;;;;;;9.17;6.37;;;23.60;99.90;;;;;;4873458;29;20730;-69
2021/09/14 13:41:00;;;;;;;8.50;6.60;;;23.60;99.90;;;;;;4869499;29;20284;-69
2021/09/14 13:43:38;;;;;;;9.03;6.50;;;23.40;99.90;;;;;;4870688;29;20297;-69